createdAt,value
2022-11-01T00:00:17.896Z,16.55
2022-11-01T00:03:02.198Z,16.55
2022-11-01T00:05:46.684Z,16.58
2022-11-01T00:08:30.147Z,16.58
2022-11-01T00:11:15.531Z,16.61
2022-11-01T00:13:58.443Z,16.60
2022-11-01T00:16:41.661Z,16.61
2022-11-01T00:19:25.943Z,16.63
2022-11-01T00:22:08.947Z,16.62
2022-11-01T00:24:54.837Z,16.66
2022-11-01T00:27:38.057Z,16.68
2022-11-01T00:30:20.937Z,16.69
2022-11-01T00:33:04.010Z,16.67
2022-11-01T00:35:48.852Z,16.63
2022-11-01T00:38:31.529Z,16.62
2022-11-01T00:41:15.672Z,16.62
2022-11-01T00:43:58.659Z,16.58
2022-11-01T00:46:41.576Z,16.56
2022-11-01T00:49:24.425Z,16.58
2022-11-01T00:52:08.685Z,16.58
2022-11-01T00:54:51.584Z,16.54
2022-11-01T00:57:34.467Z,16.53
2022-11-01T01:00:17.540Z,16.51
2022-11-01T01:03:00.749Z,16.48
2022-11-01T01:05:43.862Z,16.47
2022-11-01T01:08:29.024Z,16.42
2022-11-01T01:11:11.938Z,16.38
2022-11-01T01:13:54.764Z,16.38
2022-11-01T01:16:37.928Z,16.34
2022-11-01T01:19:20.952Z,16.30
2022-11-01T01:22:03.962Z,16.25
2022-11-01T01:24:48.250Z,16.19
2022-11-01T01:27:31.096Z,16.15
2022-11-01T01:30:14.958Z,16.11
2022-11-01T01:32:57.839Z,16.06
2022-11-01T01:35:40.914Z,16.00
2022-11-01T01:38:23.820Z,15.95
2022-11-01T01:41:40.267Z,15.91
2022-11-01T01:45:03.381Z,15.85
2022-11-01T01:47:49.353Z,15.82
2022-11-01T01:50:35.659Z,15.78
2022-11-01T01:53:23.180Z,15.74
2022-11-01T01:56:11.338Z,15.71
2022-11-01T01:58:58.029Z,15.68
2022-11-01T02:01:42.166Z,15.66
2022-11-01T02:04:31.050Z,15.64
2022-11-01T02:07:13.978Z,15.64
2022-11-01T02:09:58.063Z,15.63
2022-11-01T02:12:48.220Z,15.61
2022-11-01T02:15:41.528Z,15.59
2022-11-01T02:18:35.718Z,15.61
2022-11-01T02:21:50.900Z,15.62
2022-11-01T02:24:59.253Z,15.61
2022-11-01T02:28:02.155Z,15.58
2022-11-01T02:30:54.242Z,15.54
2022-11-01T02:33:43.613Z,15.50
2022-11-01T02:36:35.377Z,15.45
2022-11-01T02:39:22.030Z,15.42
2022-11-01T02:42:10.913Z,15.39
2022-11-01T02:44:58.980Z,15.35
2022-11-01T02:47:42.205Z,15.33
2022-11-01T02:50:29.056Z,15.28
2022-11-01T02:53:12.817Z,15.20
2022-11-01T02:55:55.715Z,15.13
2022-11-01T02:58:38.810Z,15.09
2022-11-01T03:01:26.330Z,15.08
2022-11-01T03:04:09.498Z,15.06
2022-11-01T03:06:57.865Z,15.04
2022-11-01T03:09:42.719Z,14.99
2022-11-01T03:15:25.395Z,14.97
2022-11-01T03:18:14.977Z,14.95
2022-11-01T03:21:01.034Z,14.94
2022-11-01T03:23:51.839Z,14.89
2022-11-01T03:26:37.303Z,14.87
2022-11-01T03:29:22.460Z,14.85
2022-11-01T03:32:07.039Z,14.85
2022-11-01T03:34:49.923Z,14.83
2022-11-01T03:37:34.754Z,14.80
2022-11-01T03:40:19.660Z,14.75
2022-11-01T03:43:07.759Z,14.73
2022-11-01T03:45:50.863Z,14.66
2022-11-01T03:48:33.781Z,14.65
2022-11-01T03:51:16.587Z,14.61
2022-11-01T03:53:59.479Z,14.57
2022-11-01T03:56:43.900Z,14.52
2022-11-01T03:59:26.896Z,14.46
2022-11-01T04:04:53.550Z,14.28
2022-11-01T04:07:36.449Z,14.24
2022-11-01T04:10:20.787Z,14.20
2022-11-01T04:13:06.187Z,14.19
2022-11-01T04:16:06.595Z,14.19
2022-11-01T04:19:06.841Z,14.19
2022-11-01T04:21:49.727Z,14.20
2022-11-01T04:24:32.549Z,14.19
2022-11-01T04:27:15.452Z,14.20
2022-11-01T04:29:59.700Z,14.19
2022-11-01T04:32:44.196Z,14.19
2022-11-01T04:35:27.121Z,14.20
2022-11-01T04:38:11.627Z,14.19
2022-11-01T04:40:54.493Z,14.19
2022-11-01T04:43:37.357Z,14.19
2022-11-01T04:46:21.728Z,14.19
2022-11-01T04:49:04.605Z,14.19
2022-11-01T04:51:47.464Z,14.19
2022-11-01T04:54:33.593Z,14.20
2022-11-01T04:57:24.455Z,14.20
2022-11-01T05:00:11.228Z,14.18
2022-11-01T05:03:01.800Z,14.15
2022-11-01T05:05:44.838Z,14.13
2022-11-01T05:08:27.994Z,14.07
2022-11-01T05:11:10.936Z,14.03
2022-11-01T05:13:53.928Z,14.00
2022-11-01T05:16:37.794Z,13.97
2022-11-01T05:19:22.041Z,13.95
2022-11-01T05:22:04.976Z,13.92
2022-11-01T05:24:47.822Z,13.92
2022-11-01T05:27:30.761Z,13.92
2022-11-01T05:30:14.523Z,13.90
2022-11-01T05:32:59.034Z,13.90
2022-11-01T05:35:43.249Z,13.88
2022-11-01T05:38:26.194Z,13.82
2022-11-01T05:41:09.040Z,13.67
2022-11-01T05:43:52.215Z,13.52
2022-11-01T05:46:35.180Z,13.41
2022-11-01T05:49:18.074Z,13.33
2022-11-01T05:52:02.487Z,13.30
2022-11-01T05:54:45.322Z,13.21
2022-11-01T05:57:33.139Z,13.13
2022-11-01T06:00:16.493Z,13.04
2022-11-01T06:03:00.000Z,13.02
2022-11-01T06:05:43.161Z,12.99
2022-11-01T06:08:28.062Z,12.83
2022-11-01T06:11:11.395Z,12.74
2022-11-01T06:13:55.878Z,12.70
2022-11-01T06:16:38.749Z,12.65
2022-11-01T06:19:21.651Z,12.63
2022-11-01T06:22:04.569Z,12.63
2022-11-01T06:24:48.781Z,12.62
2022-11-01T06:27:31.860Z,12.59
2022-11-01T06:30:14.829Z,12.55
2022-11-01T06:33:01.405Z,12.54
2022-11-01T06:35:44.672Z,12.46
2022-11-01T06:38:27.548Z,12.43
2022-11-01T06:41:11.841Z,12.45
2022-11-01T06:43:54.704Z,12.49
2022-11-01T06:46:37.578Z,12.49
2022-11-01T06:49:20.531Z,12.52
2022-11-01T06:52:04.969Z,12.58
2022-11-01T06:54:47.914Z,12.62
2022-11-01T06:57:32.131Z,12.65
2022-11-01T07:00:15.748Z,12.69
2022-11-01T07:03:00.020Z,12.72
2022-11-01T07:05:43.495Z,12.74
2022-11-01T07:08:26.399Z,12.76
2022-11-01T07:11:09.393Z,12.77
2022-11-01T07:13:53.620Z,12.83
2022-11-01T07:16:36.900Z,12.86
2022-11-01T07:19:20.027Z,12.88
2022-11-01T07:22:02.989Z,12.89
2022-11-01T07:24:45.824Z,12.91
2022-11-01T07:27:28.719Z,12.91
2022-11-01T07:30:13.936Z,12.96
2022-11-01T07:32:57.576Z,13.00
2022-11-01T07:35:40.547Z,13.07
2022-11-01T07:38:23.443Z,13.15
2022-11-01T07:41:06.916Z,13.21
2022-11-01T07:43:49.809Z,13.30
2022-11-01T07:46:34.046Z,13.38
2022-11-01T07:49:16.883Z,13.49
2022-11-01T07:52:02.847Z,13.58
2022-11-01T07:54:45.909Z,13.64
2022-11-01T07:57:28.789Z,13.68
2022-11-01T08:00:12.871Z,13.73
2022-11-01T08:03:02.947Z,13.82
2022-11-01T08:05:47.325Z,13.88
2022-11-01T08:08:30.154Z,13.98
2022-11-01T08:11:13.121Z,14.10
2022-11-01T08:14:00.833Z,14.20
2022-11-01T08:16:49.805Z,14.23
2022-11-01T08:19:34.010Z,14.24
2022-11-01T08:22:16.876Z,14.23
2022-11-01T08:24:59.813Z,14.22
2022-11-01T08:27:42.719Z,14.17
2022-11-01T08:30:25.554Z,14.13
2022-11-01T08:33:08.659Z,14.06
2022-11-01T08:35:52.832Z,13.99
2022-11-01T08:38:35.714Z,13.99
2022-11-01T08:41:18.562Z,14.01
2022-11-01T08:44:01.498Z,14.01
2022-11-01T08:46:44.358Z,14.05
2022-11-01T08:49:27.425Z,14.13
2022-11-01T08:52:11.632Z,14.21
2022-11-01T08:54:54.521Z,14.22
2022-11-01T08:57:37.577Z,14.24
2022-11-01T09:00:21.375Z,14.30
2022-11-01T09:03:04.383Z,14.34
2022-11-01T09:05:47.234Z,14.35
2022-11-01T09:08:31.877Z,14.32
2022-11-01T09:11:14.750Z,14.29
2022-11-01T09:13:57.955Z,14.31
2022-11-01T09:16:40.796Z,14.33
2022-11-01T09:19:23.827Z,14.38
2022-11-01T09:22:06.709Z,14.43
2022-11-01T09:24:51.586Z,14.49
2022-11-01T09:27:34.711Z,14.57
2022-11-01T09:30:17.615Z,14.76
2022-11-01T09:33:00.711Z,14.98
2022-11-01T09:35:49.085Z,15.21
2022-11-01T09:38:33.208Z,15.41
2022-11-01T09:41:27.311Z,15.58
2022-11-01T09:44:15.992Z,15.75
2022-11-01T09:47:02.910Z,15.86
2022-11-01T09:49:49.561Z,16.02
2022-11-01T09:52:32.571Z,16.12
2022-11-01T09:55:17.291Z,16.17
2022-11-01T09:58:07.667Z,16.32
2022-11-01T10:00:56.273Z,16.48
2022-11-01T10:03:56.445Z,16.67
2022-11-01T10:06:44.925Z,16.57
2022-11-01T10:09:35.524Z,16.37
2022-11-01T10:12:30.921Z,16.14
2022-11-01T10:15:33.243Z,16.03
2022-11-01T10:18:27.370Z,16.06
2022-11-01T10:21:15.727Z,16.21
2022-11-01T10:24:03.365Z,16.18
2022-11-01T10:26:49.860Z,16.16
2022-11-01T10:29:42.851Z,16.04
2022-11-01T10:32:34.166Z,15.88
2022-11-01T10:35:20.325Z,15.73
2022-11-01T10:38:25.093Z,15.53
2022-11-01T10:41:21.126Z,15.42
2022-11-01T10:44:06.385Z,15.44
2022-11-01T10:46:51.854Z,15.55
2022-11-01T10:50:00.729Z,15.69
2022-11-01T10:52:50.309Z,15.90
2022-11-01T10:55:39.794Z,15.99
2022-11-01T10:58:35.484Z,15.98
2022-11-01T11:01:23.157Z,16.01
2022-11-01T11:04:10.205Z,16.07
2022-11-01T11:06:54.495Z,16.08
2022-11-01T11:09:38.564Z,16.08
2022-11-01T11:12:23.756Z,16.10
2022-11-01T11:15:18.468Z,16.19
2022-11-01T11:18:04.999Z,16.29
2022-11-01T11:20:53.309Z,16.33
2022-11-01T11:23:44.711Z,16.30
2022-11-01T11:26:28.912Z,16.20
2022-11-01T11:29:26.419Z,16.17
2022-11-01T11:32:17.250Z,16.27
2022-11-01T11:35:03.759Z,16.40
2022-11-01T11:37:55.031Z,16.50
2022-11-01T11:40:48.275Z,16.51
2022-11-01T11:43:34.190Z,16.58
2022-11-01T11:46:21.763Z,16.58
2022-11-01T11:49:07.137Z,16.53
2022-11-01T11:51:50.104Z,16.46
2022-11-01T11:54:37.771Z,16.42
2022-11-01T11:57:24.989Z,16.39
2022-11-01T12:00:23.182Z,16.44
2022-11-01T12:03:08.871Z,16.45
2022-11-01T12:05:54.486Z,16.36
2022-11-01T12:08:44.835Z,16.12
2022-11-01T12:11:41.644Z,16.02
2022-11-01T12:14:26.338Z,15.92
2022-11-01T12:17:45.052Z,15.93
2022-11-01T12:20:36.697Z,15.90
2022-11-01T12:23:29.816Z,15.87
2022-11-01T12:26:17.052Z,15.74
2022-11-01T12:29:07.251Z,15.62
2022-11-01T12:31:53.594Z,15.39
2022-11-01T12:34:41.558Z,15.22
2022-11-01T12:37:32.184Z,15.09
2022-11-01T12:40:19.744Z,14.97
2022-11-01T12:43:13.134Z,14.88
2022-11-01T12:46:01.160Z,14.79
2022-11-01T12:48:52.174Z,14.79
2022-11-01T12:51:38.597Z,14.81
2022-11-01T12:54:28.016Z,14.83
2022-11-01T12:57:15.439Z,14.75
2022-11-01T12:59:58.965Z,14.69
2022-11-01T13:03:07.732Z,14.53
2022-11-01T13:05:58.464Z,14.53
2022-11-01T13:08:50.027Z,14.58
2022-11-01T13:11:42.378Z,14.56
2022-11-01T13:14:37.115Z,14.51
2022-11-01T13:17:25.843Z,14.52
2022-11-01T13:20:25.422Z,14.64
2022-11-01T13:23:19.604Z,14.69
2022-11-01T13:26:05.936Z,14.76
2022-11-01T13:29:08.064Z,14.82
2022-11-01T13:32:05.067Z,14.78
2022-11-01T13:34:59.679Z,14.77
2022-11-01T13:37:49.991Z,14.74
2022-11-01T13:40:40.093Z,14.69
2022-11-01T13:43:26.470Z,14.70
2022-11-01T13:46:42.909Z,14.68
2022-11-01T13:49:58.700Z,14.68
2022-11-01T13:52:46.999Z,14.69
2022-11-01T13:55:36.426Z,14.68
2022-11-01T13:58:22.601Z,14.65
2022-11-01T14:01:31.718Z,14.62
2022-11-01T14:04:38.678Z,14.56
2022-11-01T14:07:22.046Z,14.52
2022-11-01T14:10:12.023Z,14.45
2022-11-01T14:13:12.170Z,14.37
2022-11-01T14:16:19.541Z,14.32
2022-11-01T14:19:30.535Z,14.25
2022-11-01T14:22:28.272Z,14.21
2022-11-01T14:25:31.218Z,14.15
2022-11-01T14:28:23.001Z,14.09
2022-11-01T14:31:07.540Z,14.05
2022-11-01T14:33:54.734Z,14.10
2022-11-01T14:36:43.876Z,14.12
2022-11-01T14:39:34.146Z,14.08
2022-11-01T14:42:20.822Z,14.02
2022-11-01T14:45:20.358Z,13.97
2022-11-01T14:48:13.450Z,13.91
2022-11-01T14:51:03.358Z,13.84
2022-11-01T14:53:49.083Z,13.82
2022-11-01T14:56:38.415Z,13.77
2022-11-01T14:59:25.697Z,13.73
2022-11-01T15:02:08.806Z,13.73
2022-11-01T15:04:59.411Z,13.72
2022-11-01T15:07:43.171Z,13.67
2022-11-01T15:10:26.526Z,13.66
2022-11-01T15:13:13.220Z,13.68
2022-11-01T15:16:07.553Z,13.71
2022-11-01T15:18:54.064Z,13.76
2022-11-01T15:21:47.125Z,13.77
2022-11-01T15:24:34.100Z,13.75
2022-11-01T15:27:21.152Z,13.74
2022-11-01T15:30:06.152Z,13.76
2022-11-01T15:32:53.254Z,13.81
2022-11-01T15:35:36.123Z,13.87
2022-11-01T15:38:21.223Z,13.89
2022-11-01T15:41:27.657Z,13.90
2022-11-01T15:44:20.399Z,13.93
2022-11-01T15:47:06.571Z,13.95
2022-11-01T15:49:53.966Z,13.94
2022-11-01T15:52:37.052Z,13.92
2022-11-01T15:55:28.871Z,13.88
2022-11-01T15:58:18.615Z,13.83
2022-11-01T16:01:04.674Z,13.77
2022-11-01T16:03:52.379Z,13.75
2022-11-01T16:06:42.843Z,13.76
2022-11-01T16:09:33.568Z,13.74
2022-11-01T16:12:20.539Z,13.69
2022-11-01T16:15:07.153Z,13.64
2022-11-01T16:17:52.239Z,13.60
2022-11-01T16:20:40.965Z,13.59
2022-11-01T16:23:29.395Z,13.59
2022-11-01T16:26:13.590Z,13.59
2022-11-01T16:28:57.849Z,13.62
2022-11-01T16:31:41.842Z,13.64
2022-11-01T16:34:24.961Z,13.66
2022-11-01T16:37:19.960Z,13.68
2022-11-01T16:40:24.947Z,13.70
2022-11-01T16:43:10.068Z,13.71
2022-11-01T16:45:54.793Z,13.68
2022-11-01T16:48:49.033Z,13.68
2022-11-01T16:51:32.298Z,13.67
2022-11-01T16:54:15.201Z,13.64
2022-11-01T16:56:59.134Z,13.61
2022-11-01T16:59:42.619Z,13.62
2022-11-01T17:02:29.846Z,13.60
2022-11-01T17:05:20.930Z,13.58
2022-11-01T17:08:04.495Z,13.56
2022-11-01T17:10:48.197Z,13.47
2022-11-01T17:13:31.113Z,13.35
2022-11-01T17:16:21.254Z,13.21
2022-11-01T17:19:06.928Z,13.15
2022-11-01T17:21:51.769Z,13.06
2022-11-01T17:24:34.685Z,13.04
2022-11-01T17:27:18.632Z,13.05
2022-11-01T17:30:01.642Z,13.07
2022-11-01T17:32:44.987Z,13.11
2022-11-01T17:35:29.249Z,13.15
2022-11-01T17:38:17.688Z,13.19
2022-11-01T17:41:01.036Z,13.22
2022-11-01T17:43:44.140Z,13.25
2022-11-01T17:46:27.318Z,13.28
2022-11-01T17:49:13.517Z,13.30
2022-11-01T17:51:57.800Z,13.33
2022-11-01T17:54:41.057Z,13.34
2022-11-01T17:57:23.976Z,13.35
2022-11-01T18:00:08.204Z,13.35
2022-11-01T18:03:00.563Z,13.36
2022-11-01T18:05:44.107Z,13.35
2022-11-01T18:08:31.871Z,13.36
2022-11-01T18:11:24.745Z,13.36
2022-11-01T18:14:17.191Z,13.37
2022-11-01T18:17:09.163Z,13.36
2022-11-01T18:19:58.071Z,13.34
2022-11-01T18:22:50.460Z,13.32
2022-11-01T18:25:39.422Z,13.30
2022-11-01T18:28:25.229Z,13.29
2022-11-01T18:31:14.875Z,13.28
2022-11-01T18:34:02.443Z,13.26
2022-11-01T18:36:52.620Z,13.26
2022-11-01T18:39:40.367Z,13.25
2022-11-01T18:42:25.600Z,13.24
2022-11-01T18:45:18.797Z,13.22
2022-11-01T18:48:06.321Z,13.19
2022-11-01T18:50:49.300Z,13.19
2022-11-01T18:53:33.914Z,13.19
2022-11-01T18:56:25.649Z,13.17
2022-11-01T18:59:16.328Z,13.17
2022-11-01T19:02:03.414Z,13.17
2022-11-01T19:04:47.590Z,13.18
2022-11-01T19:07:44.505Z,13.18
2022-11-01T19:10:35.463Z,13.19
2022-11-01T19:13:21.835Z,13.18
2022-11-01T19:16:12.325Z,13.17
2022-11-01T19:18:55.437Z,13.16
2022-11-01T19:21:38.397Z,13.16
2022-11-01T19:24:32.704Z,13.16
2022-11-01T19:27:21.793Z,13.17
2022-11-01T19:30:21.084Z,13.18
2022-11-01T19:33:23.373Z,13.19
2022-11-01T19:36:15.291Z,13.18
2022-11-01T19:38:58.232Z,13.16
2022-11-01T19:41:41.385Z,13.15
2022-11-01T19:44:26.504Z,13.14
2022-11-01T19:47:36.652Z,13.12
2022-11-01T19:50:23.859Z,13.13
2022-11-01T19:53:16.592Z,13.13
2022-11-01T19:56:01.550Z,13.12
2022-11-01T19:58:45.584Z,13.13
2022-11-01T20:01:41.516Z,13.11
2022-11-01T20:04:27.970Z,13.12
2022-11-01T20:07:16.366Z,13.11
2022-11-01T20:09:59.306Z,13.10
2022-11-01T20:12:44.675Z,13.08
2022-11-01T20:15:27.966Z,13.04
2022-11-01T20:18:11.045Z,13.04
2022-11-01T20:20:54.063Z,13.01
2022-11-01T20:23:39.066Z,13.01
2022-11-01T20:26:22.055Z,13.01
2022-11-01T20:29:04.916Z,13.00
2022-11-01T20:31:48.408Z,12.98
2022-11-01T20:34:31.634Z,12.95
2022-11-01T20:37:27.963Z,12.93
2022-11-01T20:40:13.719Z,12.91
2022-11-01T20:42:56.884Z,12.91
2022-11-01T20:45:39.767Z,12.93
2022-11-01T20:48:22.819Z,12.95
2022-11-01T20:51:06.139Z,12.94
2022-11-01T20:53:49.353Z,12.94
2022-11-01T20:56:33.650Z,12.94
2022-11-01T20:59:20.388Z,12.94
2022-11-01T21:02:10.157Z,12.92
2022-11-01T21:05:00.706Z,12.91
2022-11-01T21:07:47.812Z,12.91
2022-11-01T21:10:34.436Z,12.88
2022-11-01T21:13:24.962Z,12.86
2022-11-01T21:16:15.183Z,12.85
2022-11-01T21:19:02.784Z,12.82
2022-11-01T21:21:47.168Z,12.80
2022-11-01T21:24:32.476Z,12.80
2022-11-01T21:30:21.480Z,12.74
2022-11-01T21:33:27.439Z,12.72
2022-11-01T21:36:23.515Z,12.69
2022-11-01T21:39:15.222Z,12.68
2022-11-01T21:42:01.099Z,12.67
2022-11-01T21:44:46.016Z,12.65
2022-11-01T21:47:31.630Z,12.64
2022-11-01T21:50:14.662Z,12.59
2022-11-01T21:52:57.537Z,12.56
2022-11-01T21:55:40.407Z,12.53
2022-11-01T21:58:23.318Z,12.50
2022-11-01T22:01:06.477Z,12.48
2022-11-01T22:03:50.747Z,12.46
2022-11-01T22:06:33.668Z,12.43
2022-11-01T22:09:17.575Z,12.38
2022-11-01T22:12:01.174Z,12.34
2022-11-01T22:14:44.101Z,12.30
2022-11-01T22:17:26.971Z,12.27
2022-11-01T22:20:11.975Z,12.24
2022-11-01T22:22:54.836Z,12.19
2022-11-01T22:25:37.722Z,12.15
2022-11-01T22:28:20.577Z,12.13
2022-11-01T22:31:03.817Z,12.11
2022-11-01T22:33:49.607Z,12.08
2022-11-01T22:36:37.329Z,12.06
2022-11-01T22:39:23.701Z,12.04
2022-11-01T22:42:11.260Z,12.02
2022-11-01T22:44:55.060Z,12.00
2022-11-01T22:47:37.909Z,11.98
2022-11-01T22:50:27.519Z,11.92
2022-11-01T22:53:14.840Z,11.91
2022-11-01T22:55:57.686Z,11.91
2022-11-01T22:58:40.569Z,11.90
2022-11-01T23:01:27.991Z,11.89
2022-11-01T23:04:21.899Z,11.90
2022-11-01T23:07:17.799Z,11.89
2022-11-01T23:10:06.224Z,11.89
2022-11-01T23:13:09.676Z,11.90
2022-11-01T23:15:52.816Z,11.94
2022-11-01T23:18:35.906Z,11.98
2022-11-01T23:21:20.137Z,11.97
2022-11-01T23:24:03.235Z,11.95
2022-11-01T23:26:47.509Z,11.91
2022-11-01T23:29:30.364Z,11.89
2022-11-01T23:32:13.574Z,11.87
2022-11-01T23:35:07.616Z,11.86
2022-11-01T23:37:51.297Z,11.83
2022-11-01T23:40:34.523Z,11.81
2022-11-01T23:43:23.718Z,11.81
2022-11-01T23:46:07.699Z,11.81
2022-11-01T23:48:51.231Z,11.78
2022-11-01T23:51:34.102Z,11.77
2022-11-01T23:54:23.711Z,11.76
2022-11-01T23:57:06.849Z,11.73
2022-11-01T23:59:52.034Z,11.67
